Time;durP1;ratioP1;P1;durP2;ratioP2;P2;SDS_P1;SDS_P2;PMS_P1;PMS_P2;Temp;Humidity;BMP_temperature;BMP_pressure;BME280_temperature;BME280_humidity;BME280_pressure;Samples;Min_cycle;Max_cycle;Signal;HPM_P1;HPM_P2
2021/05/12 00:01:35;;;;;;;7.55;3.38;;;;;;;;;;5114407;28;20031;-70
2021/05/12 00:04:01;;;;;;;7.82;3.83;;;;;;;;;;5112666;28;20042;-74
2021/05/12 00:06:28;;;;;;;6.90;3.55;;;;;;;;;;5113793;28;20411;-72
2021/05/12 00:08:54;;;;;;;9.52;3.55;;;;;;;;;;5113508;28;20047;-70
2021/05/12 00:11:20;;;;;;;8.75;3.63;;;;;;;;;;5111942;28;20372;-72
2021/05/12 00:13:46;;;;;;;7.28;3.33;;;;;;;;;;5113619;28;20031;-71
2021/05/12 00:16:12;;;;;;;8.20;3.50;;;;;;;;;;5112988;28;20023;-69
2021/05/12 00:18:41;;;;;;;6.93;3.58;;;;;;;;;;5047365;28;20029;-72
2021/05/12 00:21:11;;;;;;;6.63;3.78;;;;;;;;;;5029693;28;20104;-71
2021/05/12 00:23:46;;;;;;;12.90;3.30;;;;;;;;;;5028677;28;20025;-71
2021/05/12 00:26:12;;;;;;;8.07;3.45;;;;;;;;;;5029041;28;20032;-72
2021/05/12 00:28:38;;;;;;;5.80;3.40;;;;;;;;;;5030256;28;20033;-71
2021/05/12 00:31:04;;;;;;;6.75;2.92;;;;;;;;;;5030114;28;20025;-71
2021/05/12 00:33:30;;;;;;;8.07;3.45;;;;;;;;;;5029844;28;20049;-71
2021/05/12 00:35:56;;;;;;;6.85;3.30;;;;;;;;;;5021266;28;20045;-72
2021/05/12 00:38:22;;;;;;;6.43;3.50;;;;;;;;;;5010447;28;20026;-71
2021/05/12 00:40:48;;;;;;;6.07;2.83;;;;;;;;;;5010363;28;20071;-71
2021/05/12 00:43:15;;;;;;;6.15;3.17;;;;;;;;;;5010237;28;20474;-71
2021/05/12 00:45:41;;;;;;;8.50;3.60;;;;;;;;;;5009473;28;20022;-71
2021/05/12 00:48:07;;;;;;;6.28;2.95;;;;;;;;;;5041464;28;20113;-71
2021/05/12 00:50:33;;;;;;;8.75;2.80;;;;;;;;;;5040809;28;20112;-71
2021/05/12 00:53:00;;;;;;;8.63;3.63;;;;;;;;;;5009390;28;20094;-71
2021/05/12 00:55:27;;;;;;;10.07;2.95;;;;;;;;;;5009392;28;20025;-71
2021/05/12 00:57:53;;;;;;;7.25;3.33;;;;;;;;;;5041398;28;20022;-71
2021/05/12 01:00:19;;;;;;;7.35;3.40;;;;;;;;;;5009653;28;20077;-71
2021/05/12 01:02:45;;;;;;;7.03;3.10;;;;;;;;;;5041190;28;20034;-72
2021/05/12 01:05:14;;;;;;;5.25;3.00;;;;;;;;;;5009406;28;20025;-71
2021/05/12 01:07:41;;;;;;;8.70;2.97;;;;;;;;;;5006866;28;20063;-72
2021/05/12 01:10:07;;;;;;;9.40;3.47;;;;;;;;;;4989561;28;20463;-71
2021/05/12 01:12:33;;;;;;;8.80;3.47;;;;;;;;;;4988491;28;20030;-71
2021/05/12 01:14:59;;;;;;;9.48;3.05;;;;;;;;;;4989752;28;20061;-72
2021/05/12 01:17:25;;;;;;;10.75;3.25;;;;;;;;;;4989875;28;20033;-71
2021/05/12 01:19:51;;;;;;;6.00;3.42;;;;;;;;;;4988388;28;20029;-71
2021/05/12 01:22:17;;;;;;;6.72;3.10;;;;;;;;;;4989602;28;20026;-71
2021/05/12 01:24:43;;;;;;;6.40;3.00;;;;;;;;;;4988546;28;20030;-71
2021/05/12 01:27:09;;;;;;;7.15;3.30;;;;;;;;;;4990239;28;20033;-71
2021/05/12 01:29:35;;;;;;;6.93;3.45;;;;;;;;;;4990397;28;20491;-71
2021/05/12 01:32:04;;;;;;;6.93;3.05;;;;;;;;;;4990366;28;20021;-71
2021/05/12 01:34:30;;;;;;;8.80;2.75;;;;;;;;;;4989925;28;20060;-71
2021/05/12 01:36:56;;;;;;;7.57;3.33;;;;;;;;;;4990013;28;20075;-71
2021/05/12 01:39:22;;;;;;;5.88;3.15;;;;;;;;;;4989953;28;20034;-71
2021/05/12 01:41:48;;;;;;;7.85;3.35;;;;;;;;;;4989856;28;20068;-71
2021/05/12 01:44:14;;;;;;;6.75;3.03;;;;;;;;;;4990052;28;20423;-71
2021/05/12 01:46:41;;;;;;;5.80;3.10;;;;;;;;;;4989764;28;20038;-71
2021/05/12 01:49:08;;;;;;;6.50;3.17;;;;;;;;;;4990021;28;20048;-71
2021/05/12 01:51:35;;;;;;;7.10;3.30;;;;;;;;;;4988493;28;20027;-71
2021/05/12 01:54:01;;;;;;;6.97;3.40;;;;;;;;;;4989617;28;20049;-71
2021/05/12 01:56:27;;;;;;;7.60;3.47;;;;;;;;;;4989804;28;20022;-71
2021/05/12 01:58:53;;;;;;;6.13;3.05;;;;;;;;;;4988309;28;20054;-71
2021/05/12 02:01:19;;;;;;;7.80;3.20;;;;;;;;;;4988433;28;20109;-71
2021/05/12 02:03:45;;;;;;;5.28;3.13;;;;;;;;;;4988614;28;20224;-71
2021/05/12 02:06:11;;;;;;;6.13;3.20;;;;;;;;;;4988416;28;20031;-72
2021/05/12 02:08:37;;;;;;;5.72;3.50;;;;;;;;;;4989706;28;20060;-71
2021/05/12 02:11:04;;;;;;;8.80;3.35;;;;;;;;;;4989942;28;20045;-71
2021/05/12 02:13:31;;;;;;;6.00;3.25;;;;;;;;;;4989393;28;20087;-71
2021/05/12 02:15:58;;;;;;;6.35;3.05;;;;;;;;;;4989429;28;20634;-71
2021/05/12 02:18:24;;;;;;;8.18;3.03;;;;;;;;;;4987596;28;20122;-71
2021/05/12 02:20:51;;;;;;;6.45;2.80;;;;;;;;;;4988651;28;20026;-71
2021/05/12 02:23:18;;;;;;;9.68;2.65;;;;;;;;;;4988778;28;20027;-71
2021/05/12 02:25:44;;;;;;;7.70;3.28;;;;;;;;;;4988520;28;20022;-71
2021/05/12 02:28:11;;;;;;;6.05;3.20;;;;;;;;;;4988633;28;20026;-71
2021/05/12 02:30:37;;;;;;;5.85;3.40;;;;;;;;;;4988600;28;20026;-71
2021/05/12 02:33:04;;;;;;;5.82;2.72;;;;;;;;;;4987069;28;20145;-71
2021/05/12 02:35:30;;;;;;;8.07;3.10;;;;;;;;;;4988804;28;20039;-71
2021/05/12 02:37:56;;;;;;;6.68;2.80;;;;;;;;;;5008036;28;20029;-71
2021/05/12 02:40:23;;;;;;;7.18;2.88;;;;;;;;;;5008169;28;20034;-71
2021/05/12 02:42:49;;;;;;;6.22;2.95;;;;;;;;;;5008099;28;20053;-71
2021/05/12 02:45:16;;;;;;;7.10;3.40;;;;;;;;;;5008103;28;20049;-71
2021/05/12 02:47:42;;;;;;;7.03;3.35;;;;;;;;;;5040000;28;20029;-71
2021/05/12 02:50:10;;;;;;;7.35;3.58;;;;;;;;;;5040346;28;20018;-71
2021/05/12 02:52:36;;;;;;;6.82;3.13;;;;;;;;;;5008390;28;20063;-71
2021/05/12 02:55:03;;;;;;;5.78;3.10;;;;;;;;;;5008569;28;20087;-71
2021/05/12 02:57:29;;;;;;;5.35;3.05;;;;;;;;;;5008631;28;20030;-71
2021/05/12 02:59:55;;;;;;;7.97;3.17;;;;;;;;;;5040371;28;20026;-71
2021/05/12 03:02:21;;;;;;;6.53;3.10;;;;;;;;;;5040229;28;20109;-71
2021/05/12 03:04:47;;;;;;;6.10;2.80;;;;;;;;;;5008323;28;20030;-71
2021/05/12 03:07:13;;;;;;;6.28;3.33;;;;;;;;;;5040182;28;20022;-71
2021/05/12 03:09:40;;;;;;;7.07;3.70;;;;;;;;;;5008349;28;20022;-71
2021/05/12 03:12:06;;;;;;;6.00;3.05;;;;;;;;;;5008373;28;20022;-71
2021/05/12 03:14:32;;;;;;;6.75;3.00;;;;;;;;;;5009701;28;20041;-71
2021/05/12 03:16:58;;;;;;;9.48;3.50;;;;;;;;;;5011690;28;20061;-71
2021/05/12 03:19:26;;;;;;;6.75;3.58;;;;;;;;;;5011489;28;20034;-71
2021/05/12 03:21:56;;;;;;;8.25;3.58;;;;;;;;;;5011781;28;20053;-71
2021/05/12 03:24:22;;;;;;;9.25;3.40;;;;;;;;;;5043275;28;20390;-71
2021/05/12 03:26:48;;;;;;;6.40;3.33;;;;;;;;;;5011596;28;20119;-71
2021/05/12 03:29:15;;;;;;;7.32;3.72;;;;;;;;;;5011347;28;20033;-71
2021/05/12 03:31:41;;;;;;;10.13;3.25;;;;;;;;;;5011434;28;20370;-71
2021/05/12 03:34:07;;;;;;;8.30;3.80;;;;;;;;;;5011237;28;20132;-71
2021/05/12 03:36:34;;;;;;;6.85;3.50;;;;;;;;;;5043191;28;20022;-71
2021/05/12 03:39:00;;;;;;;6.03;3.45;;;;;;;;;;5043163;27;20033;-71
2021/05/12 03:41:26;;;;;;;8.10;3.35;;;;;;;;;;5043018;28;20045;-71
2021/05/12 03:43:52;;;;;;;7.78;3.85;;;;;;;;;;5011285;28;20032;-71
2021/05/12 03:46:18;;;;;;;7.45;3.67;;;;;;;;;;5043078;28;20026;-71
2021/05/12 03:48:44;;;;;;;7.45;3.40;;;;;;;;;;5011523;28;20026;-70
2021/05/12 03:51:10;;;;;;;5.82;3.25;;;;;;;;;;5011290;28;20026;-71
2021/05/12 03:53:36;;;;;;;7.72;3.60;;;;;;;;;;5011478;28;20038;-71
2021/05/12 03:56:03;;;;;;;6.93;3.50;;;;;;;;;;5010478;28;20082;-70
2021/05/12 03:58:29;;;;;;;8.88;3.00;;;;;;;;;;5042757;28;20025;-71
2021/05/12 04:00:57;;;;;;;8.90;3.38;;;;;;;;;;5042648;28;20032;-71
2021/05/12 04:03:23;;;;;;;5.72;2.90;;;;;;;;;;5010871;28;20030;-71
2021/05/12 04:05:49;;;;;;;10.27;3.33;;;;;;;;;;5010611;28;20145;-71
2021/05/12 04:08:15;;;;;;;9.93;3.38;;;;;;;;;;5010945;28;20079;-71
2021/05/12 04:10:41;;;;;;;9.82;3.20;;;;;;;;;;5010883;28;20561;-71
2021/05/12 04:13:07;;;;;;;7.45;3.40;;;;;;;;;;5042638;28;20026;-71
2021/05/12 04:15:34;;;;;;;9.70;3.22;;;;;;;;;;5010509;28;20030;-71
2021/05/12 04:18:00;;;;;;;8.55;3.42;;;;;;;;;;5042478;28;20010;-71
2021/05/12 04:20:26;;;;;;;7.40;3.20;;;;;;;;;;5010610;28;20547;-71
2021/05/12 04:22:52;;;;;;;6.72;3.65;;;;;;;;;;5010898;28;20051;-71
2021/05/12 04:25:19;;;;;;;6.82;3.13;;;;;;;;;;5009803;28;20070;-71
2021/05/12 04:27:46;;;;;;;8.07;2.97;;;;;;;;;;5010461;28;20536;-71
2021/05/12 04:30:13;;;;;;;6.72;3.20;;;;;;;;;;5010582;28;20026;-71
2021/05/12 04:32:40;;;;;;;6.07;2.60;;;;;;;;;;5010036;28;20022;-71
2021/05/12 04:35:07;;;;;;;8.43;3.10;;;;;;;;;;5041905;28;20064;-71
2021/05/12 04:37:33;;;;;;;9.93;3.00;;;;;;;;;;4991834;28;20026;-71
2021/05/12 04:40:00;;;;;;;6.65;2.95;;;;;;;;;;4990563;28;20487;-71
2021/05/12 04:42:26;;;;;;;7.20;3.13;;;;;;;;;;4991030;28;20050;-71
2021/05/12 04:44:53;;;;;;;7.28;3.13;;;;;;;;;;4990871;28;20054;-71
2021/05/12 04:47:19;;;;;;;6.38;2.85;;;;;;;;;;4991119;28;20027;-71
2021/05/12 04:49:45;;;;;;;6.55;3.40;;;;;;;;;;4990631;28;20036;-71
2021/05/12 04:52:12;;;;;;;8.70;3.15;;;;;;;;;;5005813;28;20031;-71
2021/05/12 04:54:38;;;;;;;11.55;3.40;;;;;;;;;;4990631;28;20038;-71
2021/05/12 04:57:04;;;;;;;7.28;3.10;;;;;;;;;;4990918;28;20516;-71
2021/05/12 04:59:30;;;;;;;7.28;3.25;;;;;;;;;;4991405;28;20041;-71
2021/05/12 05:01:57;;;;;;;10.15;3.08;;;;;;;;;;4991275;28;20058;-71
2021/05/12 05:04:24;;;;;;;10.85;3.20;;;;;;;;;;4991166;28;20092;-71
2021/05/12 05:06:50;;;;;;;8.93;3.53;;;;;;;;;;4991209;28;20022;-71
2021/05/12 05:09:16;;;;;;;8.32;3.30;;;;;;;;;;4991152;28;20056;-71
2021/05/12 05:11:42;;;;;;;10.70;3.45;;;;;;;;;;4991126;28;20023;-71
2021/05/12 05:14:09;;;;;;;7.38;3.00;;;;;;;;;;4991150;28;20034;-71
2021/05/12 05:16:35;;;;;;;8.07;3.17;;;;;;;;;;4991211;28;20023;-71
2021/05/12 05:19:01;;;;;;;8.15;2.88;;;;;;;;;;5006244;28;20050;-72
2021/05/12 05:21:27;;;;;;;7.90;3.15;;;;;;;;;;4990958;28;20098;-71
2021/05/12 05:23:56;;;;;;;8.43;2.95;;;;;;;;;;5005784;28;20033;-71
2021/05/12 05:26:22;;;;;;;8.13;3.22;;;;;;;;;;4990844;28;20030;-71
2021/05/12 05:28:50;;;;;;;7.78;2.95;;;;;;;;;;4990614;28;20385;-71
2021/05/12 05:31:16;;;;;;;7.88;2.85;;;;;;;;;;4990884;28;20075;-71
2021/05/12 05:33:42;;;;;;;8.40;2.88;;;;;;;;;;5005511;28;20030;-72
2021/05/12 05:36:08;;;;;;;6.70;2.70;;;;;;;;;;4990686;28;20038;-71
2021/05/12 05:38:34;;;;;;;7.32;2.70;;;;;;;;;;4990258;28;20475;-72
2021/05/12 05:41:00;;;;;;;6.82;2.47;;;;;;;;;;4995143;28;20030;-71
2021/05/12 05:43:28;;;;;;;7.80;2.80;;;;;;;;;;5010067;28;20109;-72
2021/05/12 05:45:54;;;;;;;11.15;2.58;;;;;;;;;;5009983;28;20022;-71
2021/05/12 05:48:20;;;;;;;7.07;2.40;;;;;;;;;;5010227;28;20033;-71
2021/05/12 05:50:46;;;;;;;7.18;2.92;;;;;;;;;;5009971;28;20382;-71
2021/05/12 05:53:12;;;;;;;11.50;3.55;;;;;;;;;;5009946;28;20038;-72
2021/05/12 05:55:38;;;;;;;5.47;2.65;;;;;;;;;;5010023;28;20054;-72
2021/05/12 05:58:04;;;;;;;7.85;2.80;;;;;;;;;;5009917;28;20014;-71
2021/05/12 06:00:30;;;;;;;8.38;3.03;;;;;;;;;;5009810;28;20506;-71
2021/05/12 06:02:56;;;;;;;9.65;2.97;;;;;;;;;;5009823;28;20026;-71
2021/05/12 06:05:22;;;;;;;5.18;2.38;;;;;;;;;;5008627;28;20390;-71
2021/05/12 06:07:49;;;;;;;8.70;2.50;;;;;;;;;;5009869;28;20092;-71
2021/05/12 06:10:15;;;;;;;8.65;2.30;;;;;;;;;;5009775;28;20014;-71
2021/05/12 06:12:41;;;;;;;12.20;3.00;;;;;;;;;;5019252;28;20523;-72
2021/05/12 06:15:07;;;;;;;6.53;2.60;;;;;;;;;;5017781;28;20061;-71
2021/05/12 06:17:33;;;;;;;6.57;2.63;;;;;;;;;;5019489;28;20018;-72
2021/05/12 06:19:59;;;;;;;7.43;2.88;;;;;;;;;;5018597;28;20052;-71
2021/05/12 06:22:25;;;;;;;7.00;3.55;;;;;;;;;;5018350;28;20378;-72
2021/05/12 06:24:52;;;;;;;11.95;4.57;;;;;;;;;;5019909;28;20586;-72
2021/05/12 06:27:19;;;;;;;8.75;4.32;;;;;;;;;;5014367;28;20097;-72
2021/05/12 06:29:45;;;;;;;10.80;4.32;;;;;;;;;;5025838;28;20071;-71
2021/05/12 06:32:11;;;;;;;18.98;3.53;;;;;;;;;;5029039;28;20026;-70
2021/05/12 06:34:37;;;;;;;11.45;3.30;;;;;;;;;;5013416;28;20056;-71
2021/05/12 06:37:03;;;;;;;9.80;3.63;;;;;;;;;;5007237;28;20022;-72
2021/05/12 06:39:30;;;;;;;12.63;3.70;;;;;;;;;;5006609;28;20050;-70
2021/05/12 06:41:56;;;;;;;8.10;3.38;;;;;;;;;;5006931;28;20025;-71
2021/05/12 06:44:23;;;;;;;11.95;3.42;;;;;;;;;;5009225;28;20043;-71
2021/05/12 06:46:51;;;;;;;12.80;3.38;;;;;;;;;;5009308;28;20037;-71
2021/05/12 06:49:17;;;;;;;8.57;3.13;;;;;;;;;;5008413;28;20022;-70
2021/05/12 06:51:43;;;;;;;13.93;3.35;;;;;;;;;;5008003;28;20033;-71
2021/05/12 06:54:09;;;;;;;7.75;3.30;;;;;;;;;;5009812;28;20070;-70
2021/05/12 06:56:35;;;;;;;12.30;3.00;;;;;;;;;;5008808;28;20026;-74
2021/05/12 06:59:01;;;;;;;8.57;2.80;;;;;;;;;;5010100;28;20033;-72
2021/05/12 07:01:27;;;;;;;8.10;3.10;;;;;;;;;;5009984;28;20105;-70
2021/05/12 07:03:53;;;;;;;8.88;3.47;;;;;;;;;;5010974;28;20025;-70
2021/05/12 07:06:19;;;;;;;5.22;2.65;;;;;;;;;;5009157;28;20023;-73
2021/05/12 07:08:49;;;;;;;10.38;3.30;;;;;;;;;;4999262;28;20103;-72
2021/05/12 07:11:16;;;;;;;9.48;3.28;;;;;;;;;;5016511;28;20030;-72
2021/05/12 07:13:42;;;;;;;11.75;3.00;;;;;;;;;;5012241;28;20034;-71
2021/05/12 07:16:08;;;;;;;6.90;2.83;;;;;;;;;;5016889;28;20026;-71
2021/05/12 07:18:34;;;;;;;14.57;4.28;;;;;;;;;;5020083;28;20030;-71
2021/05/12 07:21:00;;;;;;;7.30;2.85;;;;;;;;;;5017225;28;20108;-70
2021/05/12 07:23:28;;;;;;;9.75;2.90;;;;;;;;;;5018081;28;20466;-71
2021/05/12 07:25:56;;;;;;;10.35;2.55;;;;;;;;;;5020767;28;20076;-73
2021/05/12 07:28:22;;;;;;;11.63;3.05;;;;;;;;;;5008680;28;20084;-70
2021/05/12 07:30:48;;;;;;;10.40;2.65;;;;;;;;;;5013863;28;20507;-70
2021/05/12 07:33:14;;;;;;;8.55;2.97;;;;;;;;;;5013967;28;20030;-71
2021/05/12 07:35:40;;;;;;;12.25;3.10;;;;;;;;;;5024919;28;20464;-71
2021/05/12 07:38:06;;;;;;;10.20;2.20;;;;;;;;;;5027726;28;20025;-71
2021/05/12 07:40:35;;;;;;;10.20;2.75;;;;;;;;;;5020771;28;20045;-71
2021/05/12 07:43:03;;;;;;;9.75;2.33;;;;;;;;;;4988191;28;20034;-71
2021/05/12 07:45:29;;;;;;;7.70;2.30;;;;;;;;;;4988493;28;20034;-71
2021/05/12 07:47:56;;;;;;;10.05;2.60;;;;;;;;;;4988431;28;20022;-70
2021/05/12 07:50:22;;;;;;;9.90;2.50;;;;;;;;;;4988742;28;20061;-73
2021/05/12 07:52:48;;;;;;;5.90;2.20;;;;;;;;;;5019915;28;20038;-71
2021/05/12 07:55:14;;;;;;;6.60;2.50;;;;;;;;;;4988321;28;20026;-71
2021/05/12 07:57:40;;;;;;;11.00;2.28;;;;;;;;;;4988336;28;20022;-70
2021/05/12 08:00:08;;;;;;;7.93;2.70;;;;;;;;;;4990738;28;20078;-71
2021/05/12 08:02:34;;;;;;;10.32;2.55;;;;;;;;;;5049475;28;20105;-70
2021/05/12 08:05:00;;;;;;;11.50;2.20;;;;;;;;;;5010449;28;20051;-70
2021/05/12 08:07:26;;;;;;;7.00;2.28;;;;;;;;;;5026507;28;20026;-70
2021/05/12 08:09:52;;;;;;;6.55;2.10;;;;;;;;;;4991044;28;20034;-69
2021/05/12 08:12:18;;;;;;;7.97;2.30;;;;;;;;;;5024571;28;20113;-72
2021/05/12 08:14:44;;;;;;;5.55;2.22;;;;;;;;;;5027551;28;20029;-70
2021/05/12 08:17:10;;;;;;;9.02;2.30;;;;;;;;;;5024007;28;20022;-70
2021/05/12 08:19:37;;;;;;;7.10;2.20;;;;;;;;;;5010602;28;20033;-70
2021/05/12 08:22:10;;;;;;;8.68;2.28;;;;;;;;;;5013024;28;20030;-71
2021/05/12 08:24:36;;;;;;;9.35;2.30;;;;;;;;;;5009249;28;20029;-70
2021/05/12 08:27:03;;;;;;;5.85;2.05;;;;;;;;;;5010485;28;20036;-70
2021/05/12 08:29:30;;;;;;;7.15;2.17;;;;;;;;;;5010272;28;20014;-69
2021/05/12 08:32:00;;;;;;;6.60;2.35;;;;;;;;;;5010976;28;20432;-70
2021/05/12 08:34:29;;;;;;;4.97;2.05;;;;;;;;;;5022603;28;20049;-69
2021/05/12 08:36:56;;;;;;;8.50;2.30;;;;;;;;;;5038635;27;20033;-70
2021/05/12 08:39:22;;;;;;;4.35;1.98;;;;;;;;;;5012806;28;20109;-71
2021/05/12 08:41:49;;;;;;;6.70;2.22;;;;;;;;;;5011317;28;20055;-70
2021/05/12 08:44:15;;;;;;;8.68;1.95;;;;;;;;;;5004926;28;20034;-69
2021/05/12 08:46:42;;;;;;;5.40;2.05;;;;;;;;;;4990534;28;20050;-69
2021/05/12 08:49:08;;;;;;;7.97;2.35;;;;;;;;;;4990724;28;20108;-70
2021/05/12 08:51:35;;;;;;;8.43;2.35;;;;;;;;;;4990960;28;20025;-71
2021/05/12 08:54:01;;;;;;;5.65;2.17;;;;;;;;;;5047872;28;20090;-70
2021/05/12 08:56:27;;;;;;;5.80;2.50;;;;;;;;;;5023930;28;20474;-67
2021/05/12 08:58:53;;;;;;;11.73;2.55;;;;;;;;;;5012469;28;20086;-74
2021/05/12 09:01:20;;;;;;;7.43;1.88;;;;;;;;;;5008659;28;20082;-72
2021/05/12 09:03:46;;;;;;;6.93;2.25;;;;;;;;;;5009913;28;20131;-73
2021/05/12 09:06:13;;;;;;;6.13;2.20;;;;;;;;;;5009877;28;20014;-74
2021/05/12 09:08:41;;;;;;;9.68;1.98;;;;;;;;;;5001931;28;20029;-76
2021/05/12 09:11:07;;;;;;;6.10;2.08;;;;;;;;;;4989945;28;20386;-72
2021/05/12 09:13:46;;;;;;;7.93;2.33;;;;;;;;;;4990086;28;20031;-73
2021/05/12 09:16:31;;;;;;;5.53;1.90;;;;;;;;;;4990181;28;20475;-73
2021/05/12 09:19:07;;;;;;;7.07;2.50;;;;;;;;;;4989908;28;20030;-74
2021/05/12 09:21:50;;;;;;;5.80;2.22;;;;;;;;;;4989915;28;20110;-73
2021/05/12 09:24:35;;;;;;;6.63;2.22;;;;;;;;;;5021649;28;20022;-71
2021/05/12 09:27:03;;;;;;;7.10;2.30;;;;;;;;;;5008728;28;20030;-68
2021/05/12 09:29:31;;;;;;;6.40;2.30;;;;;;;;;;5040235;28;20019;-69
2021/05/12 09:32:10;;;;;;;8.18;2.38;;;;;;;;;;5039506;28;20037;-71
2021/05/12 09:34:57;;;;;;;8.90;2.30;;;;;;;;;;5008291;28;20053;-72
2021/05/12 09:37:23;;;;;;;6.53;2.45;;;;;;;;;;5009303;28;20082;-69
2021/05/12 09:39:50;;;;;;;8.15;1.85;;;;;;;;;;5009320;28;20022;-72
2021/05/12 09:42:17;;;;;;;4.82;1.88;;;;;;;;;;5004461;28;20026;-71
2021/05/12 09:44:43;;;;;;;7.60;2.55;;;;;;;;;;5021271;28;20015;-72
2021/05/12 09:47:09;;;;;;;5.80;2.55;;;;;;;;;;4989749;28;20029;-69
2021/05/12 09:49:40;;;;;;;5.50;2.05;;;;;;;;;;4989504;28;20018;-70
2021/05/12 09:52:06;;;;;;;7.50;2.40;;;;;;;;;;4989486;28;20392;-70
2021/05/12 09:54:33;;;;;;;5.25;2.15;;;;;;;;;;5021190;28;20035;-71
2021/05/12 09:57:00;;;;;;;6.70;2.50;;;;;;;;;;5021038;28;20462;-73
2021/05/12 09:59:31;;;;;;;8.52;1.98;;;;;;;;;;5027263;28;20113;-71
2021/05/12 10:02:00;;;;;;;8.40;2.20;;;;;;;;;;5008864;28;20096;-73
2021/05/12 10:04:47;;;;;;;8.82;2.45;;;;;;;;;;5041006;28;20038;-69
2021/05/12 10:07:13;;;;;;;6.60;1.83;;;;;;;;;;5009116;28;20042;-73
2021/05/12 10:09:41;;;;;;;6.18;2.53;;;;;;;;;;5008977;28;20041;-67
2021/05/12 10:12:14;;;;;;;6.25;1.77;;;;;;;;;;5008737;28;20050;-70
2021/05/12 10:14:42;;;;;;;7.68;2.47;;;;;;;;;;5008801;28;20026;-66
2021/05/12 10:17:09;;;;;;;9.35;2.13;;;;;;;;;;4997297;28;20033;-70
2021/05/12 10:19:36;;;;;;;14.30;2.67;;;;;;;;;;4989535;28;20484;-69
2021/05/12 10:22:03;;;;;;;9.15;2.05;;;;;;;;;;4989239;28;20029;-70
2021/05/12 10:24:30;;;;;;;9.25;2.10;;;;;;;;;;4988126;28;20022;-69
2021/05/12 10:26:59;;;;;;;9.23;2.30;;;;;;;;;;5020112;28;20022;-70
2021/05/12 10:29:25;;;;;;;5.55;2.40;;;;;;;;;;4988432;28;20019;-69
2021/05/12 10:31:51;;;;;;;9.73;2.20;;;;;;;;;;4988675;28;20479;-70
2021/05/12 10:34:18;;;;;;;7.05;2.25;;;;;;;;;;5001373;28;20124;-69
2021/05/12 10:36:45;;;;;;;13.68;1.90;;;;;;;;;;5006372;28;20044;-70
2021/05/12 10:39:11;;;;;;;10.40;2.70;;;;;;;;;;4997044;28;20097;-69
2021/05/12 10:41:37;;;;;;;7.72;2.03;;;;;;;;;;4986428;28;20113;-69
2021/05/12 10:44:28;;;;;;;7.15;2.13;;;;;;;;;;4988514;28;20125;-69
2021/05/12 10:47:19;;;;;;;9.80;2.15;;;;;;;;;;4988808;28;20041;-69
2021/05/12 10:49:55;;;;;;;4.93;2.10;;;;;;;;;;4988790;28;20026;-69
2021/05/12 10:52:21;;;;;;;5.18;2.05;;;;;;;;;;5032217;28;20062;-70
2021/05/12 10:54:51;;;;;;;6.32;1.83;;;;;;;;;;4987387;28;20042;-69
2021/05/12 10:57:36;;;;;;;6.55;2.10;;;;;;;;;;4987587;28;20015;-71
2021/05/12 11:00:02;;;;;;;6.90;1.83;;;;;;;;;;4988864;28;20030;-70
2021/05/12 11:02:47;;;;;;;5.55;1.92;;;;;;;;;;4988839;28;20019;-71
2021/05/12 11:05:13;;;;;;;3.35;1.45;;;;;;;;;;4987999;28;20026;-70
2021/05/12 11:07:59;;;;;;;7.18;2.10;;;;;;;;;;4996037;28;20026;-70
2021/05/12 11:10:25;;;;;;;7.63;2.22;;;;;;;;;;5008022;28;20099;-70
2021/05/12 11:13:11;;;;;;;7.85;2.00;;;;;;;;;;5007880;28;20225;-70
2021/05/12 11:15:50;;;;;;;6.35;2.30;;;;;;;;;;5007922;28;20412;-70
2021/05/12 11:18:37;;;;;;;5.55;2.20;;;;;;;;;;5008119;28;20026;-69
2021/05/12 11:21:33;;;;;;;5.68;1.88;;;;;;;;;;5017453;28;20038;-69
2021/05/12 11:24:06;;;;;;;7.60;2.63;;;;;;;;;;5005524;28;20379;-69
2021/05/12 11:32:03;;;;;;;5.30;2.75;;;;;;;;;;4988376;28;20405;-69
2021/05/12 11:34:30;;;;;;;9.98;3.20;;;;;;;;;;5019648;28;20114;-70
2021/05/12 11:37:11;;;;;;;6.97;3.22;;;;;;;;;;5023184;28;20022;-69
2021/05/12 11:39:38;;;;;;;7.10;3.13;;;;;;;;;;4991416;28;20026;-70
2021/05/12 11:42:04;;;;;;;11.52;3.30;;;;;;;;;;5034215;28;20482;-69
2021/05/12 11:44:30;;;;;;;10.13;4.20;;;;;;;;;;5011347;28;20101;-70
2021/05/12 11:46:56;;;;;;;8.45;3.88;;;;;;;;;;5011128;28;20470;-70
2021/05/12 11:49:28;;;;;;;10.23;4.72;;;;;;;;;;5042936;28;20424;-70
2021/05/12 11:51:58;;;;;;;12.95;4.63;;;;;;;;;;5011045;28;20029;-69
2021/05/12 11:54:25;;;;;;;14.65;3.90;;;;;;;;;;5011137;28;20535;-69
2021/05/12 11:56:54;;;;;;;16.00;4.70;;;;;;;;;;5010998;28;20026;-69
2021/05/12 11:59:22;;;;;;;12.55;3.95;;;;;;;;;;4997507;28;20022;-69
2021/05/12 12:01:55;;;;;;;14.07;4.18;;;;;;;;;;5042393;27;20029;-71
2021/05/12 12:04:30;;;;;;;13.38;4.18;;;;;;;;;;5009198;28;20147;-71
2021/05/12 12:06:56;;;;;;;13.93;3.55;;;;;;;;;;5008912;28;20025;-69
2021/05/12 12:09:22;;;;;;;11.95;4.28;;;;;;;;;;5037656;28;20029;-69
2021/05/12 12:11:49;;;;;;;11.88;4.03;;;;;;;;;;5042282;28;20022;-75
2021/05/12 12:14:15;;;;;;;13.00;4.50;;;;;;;;;;4989631;28;20060;-75
2021/05/12 12:16:43;;;;;;;11.70;4.28;;;;;;;;;;5027113;28;20050;-72
2021/05/12 12:19:16;;;;;;;8.95;3.75;;;;;;;;;;5112506;28;20085;-75
2021/05/12 12:21:43;;;;;;;13.68;4.25;;;;;;;;;;5112080;28;20012;-75
2021/05/12 12:24:13;;;;;;;9.82;3.47;;;;;;;;;;5113923;28;20030;-75
2021/05/12 12:26:43;;;;;;;37.65;4.60;;;;;;;;;;5113885;28;20023;-76
2021/05/12 12:29:09;;;;;;;21.27;5.05;;;;;;;;;;5112563;28;20403;-74
2021/05/12 12:31:37;;;;;;;14.52;5.00;;;;;;;;;;5113730;28;20093;-76
2021/05/12 12:34:09;;;;;;;15.10;5.95;;;;;;;;;;5113935;28;20104;-74
2021/05/12 12:36:49;;;;;;;12.52;6.18;;;;;;;;;;5112883;28;20020;-75
2021/05/12 12:39:16;;;;;;;14.80;6.18;;;;;;;;;;5112743;28;20038;-75
2021/05/12 12:41:42;;;;;;;9.48;6.20;;;;;;;;;;5113947;28;20015;-74
2021/05/12 12:44:08;;;;;;;14.43;7.32;;;;;;;;;;5112337;28;20024;-76
2021/05/12 12:46:34;;;;;;;14.80;7.35;;;;;;;;;;5113273;28;20069;-70
2021/05/12 12:49:00;;;;;;;14.77;8.15;;;;;;;;;;5017892;28;20527;-73
2021/05/12 12:51:37;;;;;;;20.38;8.82;;;;;;;;;;5009234;28;20029;-71
2021/05/12 12:54:03;;;;;;;14.82;9.25;;;;;;;;;;5010394;28;20030;-70
2021/05/12 12:56:29;;;;;;;16.23;9.02;;;;;;;;;;5010334;28;20018;-71
2021/05/12 12:59:08;;;;;;;12.85;8.75;;;;;;;;;;5012564;28;20528;-69
2021/05/12 13:01:35;;;;;;;12.52;8.90;;;;;;;;;;5068917;27;20018;-70
2021/05/12 13:04:20;;;;;;;16.23;8.80;;;;;;;;;;5002986;28;20026;-73
2021/05/12 13:07:02;;;;;;;15.75;8.00;;;;;;;;;;4999180;28;20089;-76
2021/05/12 13:09:29;;;;;;;13.20;7.43;;;;;;;;;;5009890;28;20025;-74
2021/05/12 13:11:55;;;;;;;15.02;8.13;;;;;;;;;;5009883;28;20018;-76
2021/05/12 13:14:22;;;;;;;11.05;7.45;;;;;;;;;;5008483;28;20436;-76
2021/05/12 13:16:48;;;;;;;12.95;6.30;;;;;;;;;;4997157;28;20018;-71
2021/05/12 13:19:17;;;;;;;11.93;6.38;;;;;;;;;;4990667;28;20022;-75
2021/05/12 13:21:52;;;;;;;12.35;7.00;;;;;;;;;;5022105;28;20022;-70
2021/05/12 13:24:32;;;;;;;15.07;6.53;;;;;;;;;;5009857;28;20032;-68
2021/05/12 13:26:59;;;;;;;10.45;6.20;;;;;;;;;;5014595;28;20022;-70
2021/05/12 13:29:25;;;;;;;12.20;6.03;;;;;;;;;;5003083;28;20030;-70
2021/05/12 13:31:52;;;;;;;13.23;6.18;;;;;;;;;;5015738;28;20033;-69
2021/05/12 13:34:20;;;;;;;12.60;6.20;;;;;;;;;;5015997;28;20508;-70
2021/05/12 13:36:49;;;;;;;12.77;6.38;;;;;;;;;;5016467;28;20040;-70
2021/05/12 13:39:15;;;;;;;8.30;5.82;;;;;;;;;;5018677;28;20145;-70
2021/05/12 13:41:42;;;;;;;14.25;6.22;;;;;;;;;;5017919;28;20101;-70
2021/05/12 13:44:08;;;;;;;9.43;6.43;;;;;;;;;;5009232;28;20018;-69
2021/05/12 13:46:35;;;;;;;12.25;7.15;;;;;;;;;;5008761;28;20131;-69
2021/05/12 13:49:01;;;;;;;11.02;6.82;;;;;;;;;;5010013;28;20062;-68
2021/05/12 13:51:34;;;;;;;14.70;7.40;;;;;;;;;;5010029;28;20010;-71
2021/05/12 13:56:38;;;;;;;11.40;5.95;;;;;;;;;;5010185;28;20026;-69
2021/05/12 14:04:02;;;;;;;15.32;6.68;;;;;;;;;;5002725;28;20027;-72
2021/05/12 14:06:33;;;;;;;13.85;6.22;;;;;;;;;;4994501;28;20490;-74
2021/05/12 14:09:11;;;;;;;11.10;6.55;;;;;;;;;;5025595;28;20029;-72
2021/05/12 14:11:52;;;;;;;9.35;6.50;;;;;;;;;;5007952;28;20026;-74
2021/05/12 14:14:31;;;;;;;12.98;6.20;;;;;;;;;;5009537;28;20030;-75
2021/05/12 14:19:23;;;;;;;11.40;6.00;;;;;;;;;;5010967;28;20171;-73
2021/05/12 14:21:51;;;;;;;11.93;6.10;;;;;;;;;;5025828;28;20014;-69
2021/05/12 14:24:17;;;;;;;8.85;5.25;;;;;;;;;;5009074;28;20078;-72
2021/05/12 14:26:44;;;;;;;12.00;5.22;;;;;;;;;;5009329;28;20427;-76
2021/05/12 14:29:15;;;;;;;11.30;5.25;;;;;;;;;;5007854;28;20026;-72
2021/05/12 14:31:42;;;;;;;8.63;4.95;;;;;;;;;;5027187;28;20022;-72
2021/05/12 14:34:08;;;;;;;14.32;5.25;;;;;;;;;;5027346;28;20059;-72
2021/05/12 14:36:34;;;;;;;9.45;5.03;;;;;;;;;;5022665;28;20366;-82
2021/05/12 14:39:03;;;;;;;7.35;4.57;;;;;;;;;;5019593;28;20058;-73
2021/05/12 14:41:29;;;;;;;12.43;4.93;;;;;;;;;;5021266;28;20369;-73
2021/05/12 14:43:55;;;;;;;7.80;4.72;;;;;;;;;;5027225;28;20470;-72
2021/05/12 14:46:21;;;;;;;8.02;4.70;;;;;;;;;;5023568;28;20086;-72
2021/05/12 14:48:47;;;;;;;9.63;4.20;;;;;;;;;;5008564;28;20030;-79
2021/05/12 14:51:18;;;;;;;7.55;4.32;;;;;;;;;;5008391;28;20135;-75
2021/05/12 14:53:44;;;;;;;8.75;4.13;;;;;;;;;;5004616;28;20039;-75
2021/05/12 15:06:42;;;;;;;6.22;3.90;;;;;;;;;;4988947;28;20038;-73
2021/05/12 15:09:09;;;;;;;7.88;4.15;;;;;;;;;;5032522;28;20068;-72
2021/05/12 15:11:35;;;;;;;8.93;4.30;;;;;;;;;;5030994;28;20053;-69